sensor_id;sensor_type;location;lat;lon;timestamp;pressure;altitude;pressure_sealevel;temperature;humidity
6859;BME280;3468;42.824;23.240;2024-03-02T00:00:52;68146.03;;;7.64;100.00
6859;BME280;3468;42.824;23.240;2024-03-02T00:03:19;68147.19;;;7.65;100.00
6859;BME280;3468;42.824;23.240;2024-03-02T00:05:50;68135.97;;;7.64;100.00
6859;BME280;3468;42.824;23.240;2024-03-02T00:08:23;68152.81;;;7.65;100.00
6859;BME280;3468;42.824;23.240;2024-03-02T00:10:50;68165.19;;;7.67;100.00
6859;BME280;3468;42.824;23.240;2024-03-02T00:13:20;68152.91;;;7.70;100.00
6859;BME280;3468;42.824;23.240;2024-03-02T00:15:50;68162.09;;;7.67;100.00
6859;BME280;3468;42.824;23.240;2024-03-02T00:18:19;68165.75;;;7.68;100.00
6859;BME280;3468;42.824;23.240;2024-03-02T00:20:46;68131.63;;;7.69;100.00
6859;BME280;3468;42.824;23.240;2024-03-02T00:23:16;68139.38;;;7.56;100.00
6859;BME280;3468;42.824;23.240;2024-03-02T00:25:44;68163.59;;;7.70;100.00
6859;BME280;3468;42.824;23.240;2024-03-02T00:28:15;68115.09;;;7.48;100.00
6859;BME280;3468;42.824;23.240;2024-03-02T00:30:55;68175.28;;;7.78;100.00
6859;BME280;3468;42.824;23.240;2024-03-02T00:33:23;68042.81;;;7.36;100.00
6859;BME280;3468;42.824;23.240;2024-03-02T00:35:50;68192.59;;;7.76;100.00
6859;BME280;3468;42.824;23.240;2024-03-02T00:38:18;68184.47;;;7.75;100.00
6859;BME280;3468;42.824;23.240;2024-03-02T00:40:45;68205.19;;;7.76;100.00
6859;BME280;3468;42.824;23.240;2024-03-02T00:46:12;68132.66;;;7.65;100.00
6859;BME280;3468;42.824;23.240;2024-03-02T00:48:55;68160.75;;;7.79;100.00
6859;BME280;3468;42.824;23.240;2024-03-02T00:51:23;68158.78;;;7.79;100.00
6859;BME280;3468;42.824;23.240;2024-03-02T00:53:53;68124.72;;;7.63;100.00
6859;BME280;3468;42.824;23.240;2024-03-02T00:56:22;68180.00;;;7.86;100.00
6859;BME280;3468;42.824;23.240;2024-03-02T00:58:49;68176.34;;;7.85;100.00
6859;BME280;3468;42.824;23.240;2024-03-02T01:01:16;67986.34;;;7.06;100.00
6859;BME280;3468;42.824;23.240;2024-03-02T01:03:43;68182.31;;;7.88;100.00
6859;BME280;3468;42.824;23.240;2024-03-02T01:06:10;68184.84;;;7.88;100.00
6859;BME280;3468;42.824;23.240;2024-03-02T01:08:36;68207.97;;;7.84;100.00
6859;BME280;3468;42.824;23.240;2024-03-02T01:11:04;68061.31;;;7.06;100.00
6859;BME280;3468;42.824;23.240;2024-03-02T01:13:31;68169.00;;;7.83;100.00
6859;BME280;3468;42.824;23.240;2024-03-02T01:15:59;68197.53;;;7.82;100.00
6859;BME280;3468;42.824;23.240;2024-03-02T01:18:26;68201.41;;;7.81;100.00
6859;BME280;3468;42.824;23.240;2024-03-02T01:20:53;68189.97;;;7.82;100.00
6859;BME280;3468;42.824;23.240;2024-03-02T01:23:21;68076.38;;;7.56;100.00
6859;BME280;3468;42.824;23.240;2024-03-02T01:25:48;68189.97;;;7.82;100.00
6859;BME280;3468;42.824;23.240;2024-03-02T01:28:16;68420.09;;;7.35;100.00
6859;BME280;3468;42.824;23.240;2024-03-02T01:30:42;68126.03;;;7.29;100.00
6859;BME280;3468;42.824;23.240;2024-03-02T01:33:09;68044.81;;;7.07;100.00
6859;BME280;3468;42.824;23.240;2024-03-02T01:35:36;68165.31;;;7.72;100.00
6859;BME280;3468;42.824;23.240;2024-03-02T01:38:03;68173.09;;;7.70;100.00
6859;BME280;3468;42.824;23.240;2024-03-02T01:40:31;68172.66;;;7.74;100.00
6859;BME280;3468;42.824;23.240;2024-03-02T01:42:58;68053.81;;;7.71;100.00
6859;BME280;3468;42.824;23.240;2024-03-02T01:45:26;68134.13;;;7.69;100.00
6859;BME280;3468;42.824;23.240;2024-03-02T01:47:53;68186.50;;;7.68;100.00
6859;BME280;3468;42.824;23.240;2024-03-02T01:50:25;68182.25;;;7.67;100.00
6859;BME280;3468;42.824;23.240;2024-03-02T01:52:52;68116.78;;;7.39;100.00
6859;BME280;3468;42.824;23.240;2024-03-02T01:55:18;68211.81;;;7.73;100.00
6859;BME280;3468;42.824;23.240;2024-03-02T01:57:45;68115.00;;;7.76;100.00
6859;BME280;3468;42.824;23.240;2024-03-02T02:00:13;68191.91;;;7.81;100.00
6859;BME280;3468;42.824;23.240;2024-03-02T02:02:42;68188.00;;;7.82;100.00
6859;BME280;3468;42.824;23.240;2024-03-02T02:05:09;68163.97;;;7.83;100.00
6859;BME280;3468;42.824;23.240;2024-03-02T02:07:35;68197.06;;;7.86;100.00
6859;BME280;3468;42.824;23.240;2024-03-02T02:10:02;68180.59;;;7.87;100.00
6859;BME280;3468;42.824;23.240;2024-03-02T02:12:29;68189.28;;;7.88;100.00
6859;BME280;3468;42.824;23.240;2024-03-02T02:14:56;68215.66;;;7.89;100.00
6859;BME280;3468;42.824;23.240;2024-03-02T02:17:23;68153.28;;;7.83;100.00
6859;BME280;3468;42.824;23.240;2024-03-02T02:19:51;68222.75;;;7.82;100.00
6859;BME280;3468;42.824;23.240;2024-03-02T02:22:19;68169.56;;;7.84;100.00
6859;BME280;3468;42.824;23.240;2024-03-02T02:24:46;68193.63;;;7.83;100.00
6859;BME280;3468;42.824;23.240;2024-03-02T02:27:12;68177.38;;;7.82;100.00
6859;BME280;3468;42.824;23.240;2024-03-02T02:29:40;68179.66;;;7.84;100.00
6859;BME280;3468;42.824;23.240;2024-03-02T02:32:07;67980.84;;;6.99;100.00
6859;BME280;3468;42.824;23.240;2024-03-02T02:34:34;68138.13;;;7.61;100.00
6859;BME280;3468;42.824;23.240;2024-03-02T02:37:00;68197.06;;;7.86;100.00
6859;BME280;3468;42.824;23.240;2024-03-02T02:39:29;68189.50;;;7.86;100.00
6859;BME280;3468;42.824;23.240;2024-03-02T02:41:55;68179.78;;;7.88;100.00
6859;BME280;3468;42.824;23.240;2024-03-02T02:44:22;68220.13;;;7.88;100.00
6859;BME280;3468;42.824;23.240;2024-03-02T02:46:49;68221.03;;;7.91;100.00
6859;BME280;3468;42.824;23.240;2024-03-02T02:49:16;68203.53;;;7.96;100.00
6859;BME280;3468;42.824;23.240;2024-03-02T02:51:42;68202.94;;;7.95;100.00
6859;BME280;3468;42.824;23.240;2024-03-02T02:54:09;68189.19;;;7.94;100.00
6859;BME280;3468;42.824;23.240;2024-03-02T02:56:37;68205.47;;;7.95;100.00
6859;BME280;3468;42.824;23.240;2024-03-02T02:59:04;68169.25;;;7.92;100.00
6859;BME280;3468;42.824;23.240;2024-03-02T03:01:30;68214.50;;;7.88;100.00
6859;BME280;3468;42.824;23.240;2024-03-02T03:03:57;68212.09;;;7.92;100.00
6859;BME280;3468;42.824;23.240;2024-03-02T03:06:24;68156.19;;;7.96;100.00
6859;BME280;3468;42.824;23.240;2024-03-02T03:08:51;68188.16;;;7.98;100.00
6859;BME280;3468;42.824;23.240;2024-03-02T03:11:17;68184.63;;;8.01;100.00
6859;BME280;3468;42.824;23.240;2024-03-02T03:13:46;68180.72;;;8.02;100.00
6859;BME280;3468;42.824;23.240;2024-03-02T03:16:13;68191.38;;;8.03;100.00
6859;BME280;3468;42.824;23.240;2024-03-02T03:18:40;68202.03;;;8.03;100.00
6859;BME280;3468;42.824;23.240;2024-03-02T03:21:07;68201.25;;;8.05;100.00
6859;BME280;3468;42.824;23.240;2024-03-02T03:23:33;68215.00;;;8.06;100.00
6859;BME280;3468;42.824;23.240;2024-03-02T03:26:00;68233.47;;;8.04;100.00
6859;BME280;3468;42.824;23.240;2024-03-02T03:28:27;68192.97;;;8.00;100.00
6859;BME280;3468;42.824;23.240;2024-03-02T03:30:55;68186.91;;;7.92;100.00
6859;BME280;3468;42.824;23.240;2024-03-02T03:33:21;68195.41;;;8.06;100.00
6859;BME280;3468;42.824;23.240;2024-03-02T03:35:48;68230.72;;;8.06;100.00
6859;BME280;3468;42.824;23.240;2024-03-02T03:38:15;68231.63;;;8.09;100.00
6859;BME280;3468;42.824;23.240;2024-03-02T03:40:42;68201.16;;;8.11;100.00
6859;BME280;3468;42.824;23.240;2024-03-02T03:43:09;68224.06;;;8.09;100.00
6859;BME280;3468;42.824;23.240;2024-03-02T03:45:36;68221.97;;;8.05;100.00
6859;BME280;3468;42.824;23.240;2024-03-02T03:48:04;68239.63;;;8.05;100.00
6859;BME280;3468;42.824;23.240;2024-03-02T03:50:31;68191.94;;;8.03;100.00
6859;BME280;3468;42.824;23.240;2024-03-02T03:52:57;68219.19;;;7.85;100.00
6859;BME280;3468;42.824;23.240;2024-03-02T03:55:24;68193.34;;;8.02;100.00
6859;BME280;3468;42.824;23.240;2024-03-02T03:57:51;68222.22;;;8.03;100.00
6859;BME280;3468;42.824;23.240;2024-03-02T04:00:18;68168.34;;;8.00;100.00
6859;BME280;3468;42.824;23.240;2024-03-02T04:02:45;68193.56;;;8.00;100.00
6859;BME280;3468;42.824;23.240;2024-03-02T04:05:13;68182.88;;;8.00;100.00
6859;BME280;3468;42.824;23.240;2024-03-02T04:07:40;68259.13;;;8.00;100.00
6859;BME280;3468;42.824;23.240;2024-03-02T04:10:09;68063.94;;;7.10;100.00
6859;BME280;3468;42.824;23.240;2024-03-02T04:12:38;68231.81;;;7.96;100.00
6859;BME280;3468;42.824;23.240;2024-03-02T04:15:05;68171.53;;;7.94;100.00
6859;BME280;3468;42.824;23.240;2024-03-02T04:17:33;68218.50;;;7.91;100.00
6859;BME280;3468;42.824;23.240;2024-03-02T04:20:01;67909.44;;;6.75;100.00
6859;BME280;3468;42.824;23.240;2024-03-02T04:22:33;67990.25;;;7.38;100.00
6859;BME280;3468;42.824;23.240;2024-03-02T04:25:01;68162.72;;;7.89;100.00
6859;BME280;3468;42.824;23.240;2024-03-02T04:27:30;68180.22;;;7.84;100.00
6859;BME280;3468;42.824;23.240;2024-03-02T04:29:56;68200.41;;;7.84;100.00
6859;BME280;3468;42.824;23.240;2024-03-02T04:32:23;68192.84;;;7.84;100.00
6859;BME280;3468;42.824;23.240;2024-03-02T04:34:50;68210.41;;;7.63;100.00
6859;BME280;3468;42.824;23.240;2024-03-02T04:37:17;68188.00;;;7.82;100.00
6859;BME280;3468;42.824;23.240;2024-03-02T04:39:45;67964.38;;;6.79;100.00
6859;BME280;3468;42.824;23.240;2024-03-02T04:42:11;68213.44;;;7.81;100.00
6859;BME280;3468;42.824;23.240;2024-03-02T04:44:38;68166.47;;;7.83;100.00
6859;BME280;3468;42.824;23.240;2024-03-02T04:47:05;68211.75;;;7.90;100.00
6859;BME280;3468;42.824;23.240;2024-03-02T04:49:32;68185.97;;;7.89;100.00
6859;BME280;3468;42.824;23.240;2024-03-02T04:51:59;68178.75;;;7.92;100.00
6859;BME280;3468;42.824;23.240;2024-03-02T04:54:25;68195.03;;;7.93;100.00
6859;BME280;3468;42.824;23.240;2024-03-02T04:56:53;68231.50;;;8.05;100.00
6859;BME280;3468;42.824;23.240;2024-03-02T04:59:20;68177.97;;;8.04;100.00
6859;BME280;3468;42.824;23.240;2024-03-02T05:01:47;68222.91;;;8.08;100.00
6859;BME280;3468;42.824;23.240;2024-03-02T05:04:14;68202.72;;;8.08;100.00
6859;BME280;3468;42.824;23.240;2024-03-02T05:06:41;68248.13;;;8.08;100.00
6859;BME280;3468;42.824;23.240;2024-03-02T05:09:08;68227.97;;;8.08;100.00
6859;BME280;3468;42.824;23.240;2024-03-02T05:11:34;68221.78;;;8.07;100.00
6859;BME280;3468;42.824;23.240;2024-03-02T05:14:16;68214.41;;;8.05;100.00
6859;BME280;3468;42.824;23.240;2024-03-02T05:16:43;68208.00;;;8.06;100.00
6859;BME280;3468;42.824;23.240;2024-03-02T05:19:10;68204.31;;;8.05;100.00
6859;BME280;3468;42.824;23.240;2024-03-02T05:21:35;68106.63;;;7.56;100.00
6859;BME280;3468;42.824;23.240;2024-03-02T05:24:02;68190.34;;;8.06;100.00
6859;BME280;3468;42.824;23.240;2024-03-02T05:26:29;68200.66;;;8.04;100.00
6859;BME280;3468;42.824;23.240;2024-03-02T05:28:56;68515.69;;;7.72;100.00
6859;BME280;3468;42.824;23.240;2024-03-02T05:31:27;68247.13;;;8.12;100.00
6859;BME280;3468;42.824;23.240;2024-03-02T05:33:54;68222.03;;;8.16;100.00
6859;BME280;3468;42.824;23.240;2024-03-02T05:36:20;68211.72;;;8.18;100.00
6859;BME280;3468;42.824;23.240;2024-03-02T05:38:47;68210.91;;;8.20;100.00
6859;BME280;3468;42.824;23.240;2024-03-02T05:41:14;68199.09;;;8.18;100.00
6859;BME280;3468;42.824;23.240;2024-03-02T05:43:41;68200.13;;;8.15;100.00
6859;BME280;3468;42.824;23.240;2024-03-02T05:46:07;68225.81;;;8.11;100.00
6859;BME280;3468;42.824;23.240;2024-03-02T05:48:35;68201.50;;;8.14;100.00
6859;BME280;3468;42.824;23.240;2024-03-02T05:51:02;68252.69;;;8.01;100.00
6859;BME280;3468;42.824;23.240;2024-03-02T05:53:30;68219.25;;;8.07;100.00
6859;BME280;3468;42.824;23.240;2024-03-02T05:55:56;68220.97;;;8.09;100.00
6859;BME280;3468;42.824;23.240;2024-03-02T05:58:23;68219.03;;;8.09;100.00
6859;BME280;3468;42.824;23.240;2024-03-02T06:01:03;68211.69;;;8.07;100.00
6859;BME280;3468;42.824;23.240;2024-03-02T06:03:30;68232.06;;;8.05;100.00
6859;BME280;3468;42.824;23.240;2024-03-02T06:05:58;68231.50;;;8.05;100.00
6859;BME280;3468;42.824;23.240;2024-03-02T06:08:25;68207.06;;;8.03;100.00
6859;BME280;3468;42.824;23.240;2024-03-02T06:10:51;68204.56;;;8.03;100.00
6859;BME280;3468;42.824;23.240;2024-03-02T06:13:18;68208.34;;;7.98;100.00
6859;BME280;3468;42.824;23.240;2024-03-02T06:15:45;68187.69;;;7.80;100.00
6859;BME280;3468;42.824;23.240;2024-03-02T06:18:11;68220.38;;;7.97;100.00
6859;BME280;3468;42.824;23.240;2024-03-02T06:20:38;68202.50;;;7.99;100.00
6859;BME280;3468;42.824;23.240;2024-03-02T06:23:06;68191.25;;;7.98;100.00
6859;BME280;3468;42.824;23.240;2024-03-02T06:25:33;68178.44;;;8.00;100.00
6859;BME280;3468;42.824;23.240;2024-03-02T06:28:00;68224.97;;;8.01;100.00
6859;BME280;3468;42.824;23.240;2024-03-02T06:30:27;68207.53;;;7.99;100.00
6859;BME280;3468;42.824;23.240;2024-03-02T06:32:53;68203.38;;;7.91;100.00
6859;BME280;3468;42.824;23.240;2024-03-02T06:35:20;68187.34;;;7.88;100.00
6859;BME280;3468;42.824;23.240;2024-03-02T06:37:47;68234.09;;;7.87;100.00
6859;BME280;3468;42.824;23.240;2024-03-02T06:40:15;68190.09;;;7.86;100.00
6859;BME280;3468;42.824;23.240;2024-03-02T06:42:42;68168.78;;;7.85;100.00
6859;BME280;3468;42.824;23.240;2024-03-02T06:45:08;68218.84;;;7.83;100.00
6859;BME280;3468;42.824;23.240;2024-03-02T06:47:35;68200.97;;;7.85;100.00
6859;BME280;3468;42.824;23.240;2024-03-02T06:50:02;68179.66;;;7.84;100.00
6859;BME280;3468;42.824;23.240;2024-03-02T06:52:29;68182.19;;;7.84;100.00
6859;BME280;3468;42.824;23.240;2024-03-02T06:54:56;68176.34;;;7.85;100.00
6859;BME280;3468;42.824;23.240;2024-03-02T06:57:24;68210.47;;;7.84;100.00
6859;BME280;3468;42.824;23.240;2024-03-02T06:59:50;68186.44;;;7.85;100.00
6859;BME280;3468;42.824;23.240;2024-03-02T07:02:20;68210.47;;;7.84;100.00
6859;BME280;3468;42.824;23.240;2024-03-02T07:04:48;68216.09;;;7.85;100.00
6859;BME280;3468;42.824;23.240;2024-03-02T07:07:16;68208.53;;;7.85;100.00
6859;BME280;3468;42.824;23.240;2024-03-02T07:09:43;68090.13;;;7.68;100.00
6859;BME280;3468;42.824;23.240;2024-03-02T07:12:10;68181.50;;;7.90;100.00
6859;BME280;3468;42.824;23.240;2024-03-02T07:14:38;68230.56;;;7.91;100.00
6859;BME280;3468;42.824;23.240;2024-03-02T07:17:22;68199.38;;;7.88;100.00
6859;BME280;3468;42.824;23.240;2024-03-02T07:19:49;68168.53;;;7.87;100.00
6859;BME280;3468;42.824;23.240;2024-03-02T07:22:15;68174.75;;;7.88;100.00
6859;BME280;3468;42.824;23.240;2024-03-02T07:24:43;68143.16;;;7.61;100.00
6859;BME280;3468;42.824;23.240;2024-03-02T07:27:11;68164.66;;;7.88;100.00
6859;BME280;3468;42.824;23.240;2024-03-02T07:29:40;68530.31;;;7.41;100.00
6859;BME280;3468;42.824;23.240;2024-03-02T07:32:07;68205.00;;;7.88;100.00
6859;BME280;3468;42.824;23.240;2024-03-02T07:34:34;68175.88;;;7.89;100.00
6859;BME280;3468;42.824;23.240;2024-03-02T07:37:01;68209.81;;;7.90;100.00
6859;BME280;3468;42.824;23.240;2024-03-02T07:39:28;68173.13;;;7.91;100.00
6859;BME280;3468;42.824;23.240;2024-03-02T07:41:55;68189.19;;;7.94;100.00
6859;BME280;3468;42.824;23.240;2024-03-02T07:44:23;68220.94;;;7.98;100.00
6859;BME280;3468;42.824;23.240;2024-03-02T07:46:51;68209.50;;;7.99;100.00
6859;BME280;3468;42.824;23.240;2024-03-02T07:49:18;68230.47;;;7.97;100.00
6859;BME280;3468;42.824;23.240;2024-03-02T07:51:45;68220.94;;;7.98;100.00
6859;BME280;3468;42.824;23.240;2024-03-02T07:54:12;68207.53;;;7.99;100.00
6859;BME280;3468;42.824;23.240;2024-03-02T07:56:38;68227.72;;;7.99;100.00
6859;BME280;3468;42.824;23.240;2024-03-02T07:59:05;68256.81;;;7.98;100.00
6859;BME280;3468;42.824;23.240;2024-03-02T08:01:33;68239.06;;;7.94;100.00
6859;BME280;3468;42.824;23.240;2024-03-02T08:04:02;68130.63;;;7.33;100.00
6859;BME280;3468;42.824;23.240;2024-03-02T08:06:29;68232.06;;;7.94;100.00
6859;BME280;3468;42.824;23.240;2024-03-02T08:08:57;68246.94;;;7.96;100.00
6859;BME280;3468;42.824;23.240;2024-03-02T08:11:24;68226.56;;;7.98;100.00
6859;BME280;3468;42.824;23.240;2024-03-02T08:13:50;68209.25;;;8.01;100.00
6859;BME280;3468;42.824;23.240;2024-03-02T08:16:18;68194.00;;;7.85;100.00
6859;BME280;3468;42.824;23.240;2024-03-02T08:18:45;68259.13;;;8.00;100.00
6859;BME280;3468;42.824;23.240;2024-03-02T08:21:13;68186.91;;;8.03;100.00
6859;BME280;3468;42.824;23.240;2024-03-02T08:23:40;68205.47;;;8.06;100.00
6859;BME280;3468;42.824;23.240;2024-03-02T08:26:07;68249.22;;;8.16;100.00
6859;BME280;3468;42.824;23.240;2024-03-02T08:28:34;68200.25;;;8.19;100.00
6859;BME280;3468;42.824;23.240;2024-03-02T08:31:02;68156.59;;;7.81;100.00
6859;BME280;3468;42.824;23.240;2024-03-02T08:33:29;68203.00;;;8.17;100.00
6859;BME280;3468;42.824;23.240;2024-03-02T08:35:56;68252.78;;;8.23;100.00
6859;BME280;3468;42.824;23.240;2024-03-02T08:38:24;68260.47;;;8.27;100.00
6859;BME280;3468;42.824;23.240;2024-03-02T08:40:51;68244.19;;;8.26;100.00
6859;BME280;3468;42.824;23.240;2024-03-02T08:43:19;68216.34;;;8.33;100.00
6859;BME280;3468;42.824;23.240;2024-03-02T08:45:48;68226.06;;;7.81;100.00
6859;BME280;3468;42.824;23.240;2024-03-02T08:48:16;68223.88;;;8.11;100.00
6859;BME280;3468;42.824;23.240;2024-03-02T08:50:42;68252.94;;;8.38;100.00
6859;BME280;3468;42.824;23.240;2024-03-02T08:53:09;68252.94;;;8.38;100.00
6859;BME280;3468;42.824;23.240;2024-03-02T08:55:37;68200.63;;;7.82;100.00
6859;BME280;3468;42.824;23.240;2024-03-02T08:58:04;68262.44;;;8.38;100.00
6859;BME280;3468;42.824;23.240;2024-03-02T09:00:31;68251.44;;;8.35;100.00
6859;BME280;3468;42.824;23.240;2024-03-02T09:02:59;68255.69;;;8.36;100.00
6859;BME280;3468;42.824;23.240;2024-03-02T09:05:26;68255.91;;;8.45;100.00
6859;BME280;3468;42.824;23.240;2024-03-02T09:07:53;68223.47;;;8.48;100.00
6859;BME280;3468;42.824;23.240;2024-03-02T09:10:19;68258.47;;;8.56;100.00
6859;BME280;3468;42.824;23.240;2024-03-02T09:12:47;68249.97;;;8.53;100.00
6859;BME280;3468;42.824;23.240;2024-03-02T09:15:15;68265.69;;;8.54;100.00
6859;BME280;3468;42.824;23.240;2024-03-02T09:17:42;68300.13;;;8.62;100.00
6859;BME280;3468;42.824;23.240;2024-03-02T09:20:11;68288.91;;;8.71;100.00
6859;BME280;3468;42.824;23.240;2024-03-02T09:22:39;68288.22;;;8.77;100.00
6859;BME280;3468;42.824;23.240;2024-03-02T09:25:07;68301.31;;;8.84;100.00
6859;BME280;3468;42.824;23.240;2024-03-02T09:27:36;68295.69;;;8.84;100.00
6859;BME280;3468;42.824;23.240;2024-03-02T09:30:06;68247.22;;;8.88;100.00
6859;BME280;3468;42.824;23.240;2024-03-02T09:32:33;68288.56;;;8.91;100.00
6859;BME280;3468;42.824;23.240;2024-03-02T09:35:00;68198.09;;;8.54;100.00
6859;BME280;3468;42.824;23.240;2024-03-02T09:37:27;68338.19;;;8.99;100.00
6859;BME280;3468;42.824;23.240;2024-03-02T09:39:54;68286.03;;;9.02;100.00
6859;BME280;3468;42.824;23.240;2024-03-02T09:42:21;68301.47;;;9.10;100.00
6859;BME280;3468;42.824;23.240;2024-03-02T09:44:48;68289.25;;;9.06;100.00
6859;BME280;3468;42.824;23.240;2024-03-02T09:47:16;68241.03;;;8.98;100.00
6859;BME280;3468;42.824;23.240;2024-03-02T09:49:43;68288.44;;;8.86;100.00
6859;BME280;3468;42.824;23.240;2024-03-02T09:52:10;68294.53;;;8.83;100.00
6859;BME280;3468;42.824;23.240;2024-03-02T09:54:36;68292.00;;;8.83;100.00
6859;BME280;3468;42.824;23.240;2024-03-02T09:57:04;68294.09;;;8.87;100.00
6859;BME280;3468;42.824;23.240;2024-03-02T09:59:31;68333.47;;;8.90;100.00
6859;BME280;3468;42.824;23.240;2024-03-02T10:01:58;68336.22;;;8.88;100.00
6859;BME280;3468;42.824;23.240;2024-03-02T10:04:28;68297.41;;;8.85;100.00
6859;BME280;3468;42.824;23.240;2024-03-02T10:07:14;68340.91;;;8.86;100.00
6859;BME280;3468;42.824;23.240;2024-03-02T10:09:41;68319.44;;;8.91;100.00
6859;BME280;3468;42.824;23.240;2024-03-02T10:12:10;68350.00;;;9.00;100.00
6859;BME280;3468;42.824;23.240;2024-03-02T10:14:38;68316.94;;;9.02;100.00
6859;BME280;3468;42.824;23.240;2024-03-02T10:17:06;68322.00;;;9.02;100.00
6859;BME280;3468;42.824;23.240;2024-03-02T10:19:35;68299.25;;;9.02;100.00
6859;BME280;3468;42.824;23.240;2024-03-02T10:22:03;68307.88;;;9.09;100.00
6859;BME280;3468;42.824;23.240;2024-03-02T10:24:36;68298.13;;;9.12;100.00
6859;BME280;3468;42.824;23.240;2024-03-02T10:27:07;68322.69;;;9.07;100.00
6859;BME280;3468;42.824;23.240;2024-03-02T10:29:37;68311.19;;;8.97;100.00
6859;BME280;3468;42.824;23.240;2024-03-02T10:32:04;68336.69;;;9.17;100.00
6859;BME280;3468;42.824;23.240;2024-03-02T10:34:32;68330.41;;;9.22;100.00
6859;BME280;3468;42.824;23.240;2024-03-02T10:37:00;68345.81;;;9.31;100.00
6859;BME280;3468;42.824;23.240;2024-03-02T10:39:28;68348.22;;;9.38;100.00
6859;BME280;3468;42.824;23.240;2024-03-02T10:41:56;68334.31;;;9.43;100.00
6859;BME280;3468;42.824;23.240;2024-03-02T10:44:23;68339.50;;;9.48;100.00
6859;BME280;3468;42.824;23.240;2024-03-02T10:46:50;68363.06;;;9.57;100.00
6859;BME280;3468;42.824;23.240;2024-03-02T10:49:20;68386.16;;;9.70;100.00
6859;BME280;3468;42.824;23.240;2024-03-02T10:51:49;68375.13;;;9.89;100.00
6859;BME280;3468;42.824;23.240;2024-03-02T10:54:17;68422.06;;;10.10;100.00
6859;BME280;3468;42.824;23.240;2024-03-02T10:56:52;68421.97;;;10.27;100.00
6859;BME280;3468;42.824;23.240;2024-03-02T10:59:26;68331.66;;;9.93;100.00
6859;BME280;3468;42.824;23.240;2024-03-02T11:01:56;68427.81;;;10.36;100.00
6859;BME280;3468;42.824;23.240;2024-03-02T11:04:24;68415.84;;;10.41;100.00
6859;BME280;3468;42.824;23.240;2024-03-02T11:06:56;68431.94;;;10.33;100.00
6859;BME280;3468;42.824;23.240;2024-03-02T11:09:28;68436.31;;;10.50;100.00
6859;BME280;3468;42.824;23.240;2024-03-02T11:12:02;68493.06;;;10.69;100.00
6859;BME280;3468;42.824;23.240;2024-03-02T11:14:30;68470.72;;;10.86;100.00
6859;BME280;3468;42.824;23.240;2024-03-02T11:16:58;68498.47;;;10.93;100.00
6859;BME280;3468;42.824;23.240;2024-03-02T11:19:27;68521.69;;;11.21;100.00
6859;BME280;3468;42.824;23.240;2024-03-02T11:21:54;68527.56;;;11.42;100.00
6859;BME280;3468;42.824;23.240;2024-03-02T11:24:32;68523.25;;;11.62;100.00
6859;BME280;3468;42.824;23.240;2024-03-02T11:27:03;68592.53;;;11.82;100.00
6859;BME280;3468;42.824;23.240;2024-03-02T11:29:46;68639.16;;;11.85;100.00
6859;BME280;3468;42.824;23.240;2024-03-02T11:32:19;68570.75;;;11.79;100.00
6859;BME280;3468;42.824;23.240;2024-03-02T11:34:47;68560.63;;;11.57;100.00
6859;BME280;3468;42.824;23.240;2024-03-02T11:37:15;68479.38;;;11.53;100.00
6859;BME280;3468;42.824;23.240;2024-03-02T11:39:45;68505.50;;;11.73;100.00
6859;BME280;3468;42.824;23.240;2024-03-02T11:42:12;68562.72;;;11.50;100.00
6859;BME280;3468;42.824;23.240;2024-03-02T11:44:42;68406.41;;;11.05;100.00
6859;BME280;3468;42.824;23.240;2024-03-02T11:47:11;68473.50;;;10.63;100.00
6859;BME280;3468;42.824;23.240;2024-03-02T11:49:41;68530.34;;;11.29;100.00
6859;BME280;3468;42.824;23.240;2024-03-02T11:52:09;68514.81;;;11.05;100.00
6859;BME280;3468;42.824;23.240;2024-03-02T11:54:37;68514.38;;;10.87;100.00
6859;BME280;3468;42.824;23.240;2024-03-02T11:57:07;68461.28;;;10.59;100.00
6859;BME280;3468;42.824;23.240;2024-03-02T11:59:34;68458.31;;;10.52;100.00
6859;BME280;3468;42.824;23.240;2024-03-02T12:02:02;68492.25;;;10.48;100.00
6859;BME280;3468;42.824;23.240;2024-03-02T12:04:29;68410.69;;;10.15;100.00
6859;BME280;3468;42.824;23.240;2024-03-02T12:06:57;68447.94;;;10.54;100.00
6859;BME280;3468;42.824;23.240;2024-03-02T12:09:26;68765.09;;;10.09;100.00
6859;BME280;3468;42.824;23.240;2024-03-02T12:12:04;68476.84;;;10.50;100.00
6859;BME280;3468;42.824;23.240;2024-03-02T12:14:32;68469.34;;;10.55;100.00
6859;BME280;3468;42.824;23.240;2024-03-02T12:17:00;68448.75;;;10.52;100.00
6859;BME280;3468;42.824;23.240;2024-03-02T12:19:27;68436.09;;;10.20;100.00
6859;BME280;3468;42.824;23.240;2024-03-02T12:21:56;68450.16;;;10.30;100.00
6859;BME280;3468;42.824;23.240;2024-03-02T12:24:23;68410.56;;;10.22;100.00
6859;BME280;3468;42.824;23.240;2024-03-02T12:26:51;68418.38;;;10.20;100.00
6859;BME280;3468;42.824;23.240;2024-03-02T12:29:19;68432.44;;;10.19;100.00
6859;BME280;3468;42.824;23.240;2024-03-02T12:31:47;68460.50;;;10.06;100.00
6859;BME280;3468;42.824;23.240;2024-03-02T12:34:16;68423.22;;;10.11;100.00
6859;BME280;3468;42.824;23.240;2024-03-02T12:36:43;68415.84;;;10.20;100.00
6859;BME280;3468;42.824;23.240;2024-03-02T12:39:13;68441.19;;;10.31;100.00
6859;BME280;3468;42.824;23.240;2024-03-02T12:41:40;68397.19;;;9.73;100.00
6859;BME280;3468;42.824;23.240;2024-03-02T12:44:07;68445.41;;;10.32;100.00
6859;BME280;3468;42.824;23.240;2024-03-02T12:46:34;68436.34;;;10.39;100.00
6859;BME280;3468;42.824;23.240;2024-03-02T12:49:08;68429.53;;;10.38;100.00
6859;BME280;3468;42.824;23.240;2024-03-02T12:51:37;68381.59;;;9.99;100.00
6859;BME280;3468;42.824;23.240;2024-03-02T12:54:06;68489.97;;;10.46;100.00
6859;BME280;3468;42.824;23.240;2024-03-02T12:56:32;68440.47;;;10.47;100.00
6859;BME280;3468;42.824;23.240;2024-03-02T12:58:59;68442.66;;;10.45;100.00
6859;BME280;3468;42.824;23.240;2024-03-02T13:01:26;68438.41;;;10.43;100.00
6859;BME280;3468;42.824;23.240;2024-03-02T13:03:53;68444.63;;;10.44;100.00
6859;BME280;3468;42.824;23.240;2024-03-02T13:06:23;68425.75;;;10.32;100.00
6859;BME280;3468;42.824;23.240;2024-03-02T13:08:52;68467.75;;;10.36;100.00
6859;BME280;3468;42.824;23.240;2024-03-02T13:11:20;68456.13;;;10.32;100.00
6859;BME280;3468;42.824;23.240;2024-03-02T13:13:48;68439.09;;;10.27;100.00
6859;BME280;3468;42.824;23.240;2024-03-02T13:16:14;68326.38;;;9.62;100.00